Time;durP1;ratioP1;P1;durP2;ratioP2;P2;SDS_P1;SDS_P2;PMS_P1;PMS_P2;Temp;Humidity;BMP_temperature;BMP_pressure;BME280_temperature;BME280_humidity;BME280_pressure;Samples;Min_cycle;Max_cycle;Signal;HPM_P1;HPM_P2
2022/08/05 00:02:25;;;;;;;2.95;2.20;;;;;;;-148.56;100.00;61375.16;4912569;28;21716;-29
2022/08/05 00:04:50;;;;;;;4.07;2.15;;;;;;;-148.56;100.00;61375.16;4912644;28;20043;-27
2022/08/05 00:07:16;;;;;;;3.40;1.70;;;;;;;-148.56;100.00;61375.16;4910686;28;20746;-30
2022/08/05 00:09:41;;;;;;;3.47;2.08;;;;;;;-148.56;100.00;61375.16;4912923;28;20151;-26
2022/08/05 00:12:07;;;;;;;2.63;2.20;;;;;;;-148.56;100.00;61375.16;4914998;28;20721;-27
2022/08/05 00:14:32;;;;;;;3.67;2.10;;;;;;;-148.56;100.00;61375.16;4909157;28;20114;-29
2022/08/05 00:16:58;;;;;;;2.55;1.90;;;;;;;-148.56;100.00;61375.16;4912757;28;20031;-29
2022/08/05 00:19:24;;;;;;;2.38;2.05;;;;;;;-148.56;100.00;61375.16;4909031;28;20411;-25
2022/08/05 00:21:49;;;;;;;2.33;2.13;;;;;;;-148.56;100.00;61375.16;4911536;28;21009;-28
2022/08/05 00:24:14;;;;;;;2.20;1.98;;;;;;;-148.56;100.00;61375.16;4908996;28;20042;-29
2022/08/05 00:26:40;;;;;;;2.25;1.92;;;;;;;-148.56;100.00;61375.16;4912741;28;22236;-28
2022/08/05 00:29:05;;;;;;;2.25;1.90;;;;;;;-148.56;100.00;61375.16;4912852;28;20034;-29
2022/08/05 00:31:30;;;;;;;6.82;2.22;;;;;;;-148.56;100.00;61375.16;4921807;28;20030;-27
2022/08/05 00:33:56;;;;;;;2.88;2.10;;;;;;;-148.56;100.00;61375.16;4906944;28;20636;-27
2022/08/05 00:36:23;;;;;;;2.92;1.83;;;;;;;-148.56;100.00;61375.16;4907089;28;20210;-28
2022/08/05 00:38:49;;;;;;;3.45;2.10;;;;;;;-148.56;100.00;61375.16;4907831;28;20878;-26
2022/08/05 00:41:14;;;;;;;2.53;1.88;;;;;;;-148.56;100.00;61375.16;4911476;28;20042;-29
2022/08/05 00:43:40;;;;;;;2.53;1.88;;;;;;;-148.56;100.00;61375.16;4892506;28;20415;-27
2022/08/05 00:46:05;;;;;;;2.40;1.95;;;;;;;-148.56;100.00;61375.16;4913121;28;20049;-25
2022/08/05 00:48:30;;;;;;;5.38;2.05;;;;;;;-148.56;100.00;61375.16;4912007;28;20086;-30
2022/08/05 00:50:56;;;;;;;2.75;1.98;;;;;;;-148.56;100.00;61375.16;4910933;28;20085;-23
2022/08/05 00:53:22;;;;;;;2.58;1.90;;;;;;;-148.56;100.00;61375.16;4908438;28;20411;-25
2022/08/05 00:55:47;;;;;;;2.30;1.92;;;;;;;-148.56;100.00;61375.16;4919823;28;20033;-26
2022/08/05 00:58:15;;;;;;;2.88;1.52;;;;;;;-148.56;100.00;61375.16;4910781;28;20031;-30
2022/08/05 01:00:41;;;;;;;2.53;2.00;;;;;;;-148.56;100.00;61375.16;4915577;28;20035;-25
2022/08/05 01:03:06;;;;;;;3.75;1.83;;;;;;;-148.56;100.00;61375.16;4909684;28;20049;-26
2022/08/05 01:05:31;;;;;;;2.38;2.03;;;;;;;-148.56;100.00;61375.16;4911004;28;21030;-29
2022/08/05 01:07:57;;;;;;;2.60;1.73;;;;;;;-148.56;100.00;61375.16;4915784;28;20066;-25
2022/08/05 01:10:27;;;;;;;3.90;2.20;;;;;;;-148.56;100.00;61375.16;4913060;28;20035;-28
2022/08/05 01:12:55;;;;;;;3.25;1.90;;;;;;;-148.56;100.00;61375.16;4881602;28;20645;-27
2022/08/05 01:15:26;;;;;;;3.15;1.90;;;;;;;-148.56;100.00;61375.16;4914572;28;20038;-27
2022/08/05 01:18:01;;;;;;;2.65;2.08;;;;;;;-148.56;100.00;61375.16;4907077;28;20161;-26
2022/08/05 01:20:50;;;;;;;3.60;2.00;;;;;;;-148.56;100.00;61375.16;4911539;28;20972;-28
2022/08/05 01:23:54;;;;;;;2.42;2.00;;;;;;;-148.56;100.00;61375.16;4912144;28;20704;-27
2022/08/05 01:26:25;;;;;;;3.03;1.83;;;;;;;-148.56;100.00;61375.16;4914281;28;20043;-30
2022/08/05 01:28:54;;;;;;;4.60;2.13;;;;;;;-148.56;100.00;61375.16;4914551;28;20034;-28
2022/08/05 01:31:22;;;;;;;3.65;1.85;;;;;;;-148.56;100.00;61375.16;4911601;28;20039;-25
2022/08/05 01:33:50;;;;;;;5.05;2.00;;;;;;;-148.56;100.00;61375.16;4907973;28;20084;-26
2022/08/05 01:36:16;;;;;;;6.55;2.30;;;;;;;-148.56;100.00;61375.16;4914088;28;20030;-30
2022/08/05 01:38:45;;;;;;;2.95;2.20;;;;;;;-148.56;100.00;61375.16;4893266;28;20689;-25
2022/08/05 01:41:13;;;;;;;5.35;2.13;;;;;;;-148.56;100.00;61375.16;4908186;28;20754;-27
2022/08/05 01:43:38;;;;;;;8.73;2.13;;;;;;;-148.56;100.00;61375.16;4913480;28;20030;-28
2022/08/05 01:46:04;;;;;;;4.15;2.03;;;;;;;-148.56;100.00;61375.16;4897530;28;20103;-30
2022/08/05 01:48:29;;;;;;;6.70;2.20;;;;;;;-148.56;100.00;61375.16;4913230;28;21082;-29
2022/08/05 01:50:54;;;;;;;8.30;2.25;;;;;;;-148.56;100.00;61375.16;4906865;28;20105;-28
2022/08/05 01:53:21;;;;;;;7.13;2.80;;;;;;;-148.56;100.00;61375.16;4915822;28;20035;-28
2022/08/05 01:55:47;;;;;;;6.97;2.58;;;;;;;-148.56;100.00;61375.16;4910006;28;20111;-30
2022/08/05 01:58:12;;;;;;;6.38;2.20;;;;;;;-148.56;100.00;61375.16;4913333;28;20031;-27
2022/08/05 02:00:41;;;;;;;4.72;2.30;;;;;;;-148.56;100.00;61375.16;4912236;28;20058;-28
2022/08/05 02:03:13;;;;;;;6.07;2.35;;;;;;;-148.56;100.00;61375.16;4911659;28;20034;-30
2022/08/05 02:05:38;;;;;;;6.65;2.38;;;;;;;-148.56;100.00;61375.16;4910459;28;20208;-27
2022/08/05 02:08:04;;;;;;;5.55;2.25;;;;;;;-148.56;100.00;61375.16;4912841;28;20974;-28
2022/08/05 02:10:39;;;;;;;5.45;2.50;;;;;;;-148.56;100.00;61375.16;4910460;28;20054;-31
2022/08/05 02:13:16;;;;;;;4.95;2.30;;;;;;;-148.56;100.00;61375.16;4912644;28;20030;-30
2022/08/05 02:15:50;;;;;;;5.35;2.50;;;;;;;-148.56;100.00;61375.16;4917367;28;20065;-28
2022/08/05 02:18:33;;;;;;;4.93;2.40;;;;;;;-148.56;100.00;61375.16;4908569;28;20034;-26
2022/08/05 02:21:05;;;;;;;8.98;2.40;;;;;;;-148.56;100.00;61375.16;4911356;28;20043;-26
2022/08/05 02:23:32;;;;;;;8.20;2.55;;;;;;;-148.56;100.00;61375.16;4912006;28;20026;-27
2022/08/05 02:25:58;;;;;;;7.82;2.65;;;;;;;-148.56;100.00;61375.16;4890811;28;20026;-25
2022/08/05 02:28:25;;;;;;;6.97;2.55;;;;;;;-148.56;100.00;61375.16;4913925;28;20038;-28
2022/08/05 02:30:54;;;;;;;12.05;2.38;;;;;;;-148.56;100.00;61375.16;4906145;28;20151;-26
2022/08/05 02:33:20;;;;;;;6.88;2.45;;;;;;;-148.56;100.00;61375.16;4905991;28;20031;-27
2022/08/05 02:35:45;;;;;;;5.78;2.40;;;;;;;-148.56;100.00;61375.16;4907828;28;20034;-27
2022/08/05 02:38:11;;;;;;;6.53;2.42;;;;;;;-148.56;100.00;61375.16;4908765;28;20031;-30
2022/08/05 02:40:40;;;;;;;3.70;2.50;;;;;;;-148.56;100.00;61375.16;4912370;28;20546;-31
2022/08/05 02:43:05;;;;;;;6.03;2.60;;;;;;;-148.56;100.00;61375.16;4913358;28;20031;-26
2022/08/05 02:45:32;;;;;;;5.90;2.75;;;;;;;-148.56;100.00;61375.16;4909970;28;21210;-27
2022/08/05 02:47:57;;;;;;;4.97;2.58;;;;;;;-148.56;100.00;61375.16;4909534;28;20081;-28
2022/08/05 02:50:23;;;;;;;7.28;2.72;;;;;;;-148.56;100.00;61375.16;4912824;28;20739;-31
2022/08/05 02:52:48;;;;;;;7.13;2.42;;;;;;;-148.56;100.00;61375.16;4910578;28;20130;-25
2022/08/05 02:55:14;;;;;;;7.07;2.50;;;;;;;-148.56;100.00;61375.16;4905384;28;20307;-24
2022/08/05 02:57:39;;;;;;;6.45;2.40;;;;;;;-148.56;100.00;61375.16;4908867;28;20034;-28
2022/08/05 03:00:07;;;;;;;9.65;2.85;;;;;;;-148.56;100.00;61375.16;4916719;28;20049;-26
2022/08/05 03:02:34;;;;;;;3.95;2.20;;;;;;;-148.56;100.00;61375.16;4915615;28;20512;-26
2022/08/05 03:05:00;;;;;;;15.43;2.30;;;;;;;-148.56;100.00;61375.16;4907068;28;20320;-30
2022/08/05 03:07:26;;;;;;;5.68;2.30;;;;;;;-148.56;100.00;61375.16;4913275;28;20435;-31
2022/08/05 03:09:51;;;;;;;6.00;2.45;;;;;;;-148.56;100.00;61375.16;4909908;28;20117;-26
2022/08/05 03:12:33;;;;;;;4.85;2.53;;;;;;;-148.56;100.00;61375.16;4911095;28;20049;-28
2022/08/05 03:14:59;;;;;;;3.15;2.30;;;;;;;-148.56;100.00;61375.16;4904463;28;21018;-26
2022/08/05 03:17:24;;;;;;;5.00;2.00;;;;;;;-148.56;100.00;61375.16;4907682;28;20058;-27
2022/08/05 03:19:50;;;;;;;4.65;2.42;;;;;;;-148.56;100.00;61375.16;4912162;28;20046;-30
2022/08/05 03:22:15;;;;;;;4.80;2.20;;;;;;;-148.56;100.00;61375.16;4909052;28;20042;-29
2022/08/05 03:24:41;;;;;;;4.45;2.13;;;;;;;-148.56;100.00;61375.16;4911513;28;20031;-26
2022/08/05 03:27:07;;;;;;;3.80;2.05;;;;;;;-148.56;100.00;61375.16;4919135;28;20077;-28
2022/08/05 03:29:32;;;;;;;5.68;2.67;;;;;;;-148.56;100.00;61375.16;4895264;28;20054;-26
2022/08/05 03:31:58;;;;;;;9.15;2.30;;;;;;;-148.56;100.00;61375.16;4908220;28;20035;-26
2022/08/05 03:34:24;;;;;;;4.53;2.40;;;;;;;-148.56;100.00;61375.16;4913321;28;20092;-27
2022/08/05 03:36:49;;;;;;;5.13;2.30;;;;;;;-148.56;100.00;61375.16;4906276;28;20883;-29
2022/08/05 03:39:14;;;;;;;4.25;2.10;;;;;;;-148.56;100.00;61375.16;4909098;28;22247;-28
2022/08/05 03:41:40;;;;;;;4.82;2.22;;;;;;;-148.56;100.00;61375.16;4911947;28;20035;-27
2022/08/05 03:44:05;;;;;;;6.82;2.65;;;;;;;-148.56;100.00;61375.16;4917306;28;20666;-27
2022/08/05 03:46:30;;;;;;;3.35;2.40;;;;;;;-148.56;100.00;61375.16;4915494;28;20098;-26
2022/08/05 03:48:57;;;;;;;4.18;2.50;;;;;;;-148.56;100.00;61375.16;4914274;28;20030;-29
2022/08/05 03:51:45;;;;;;;3.55;2.00;;;;;;;-148.56;100.00;61375.16;4920239;28;20109;-26
2022/08/05 03:54:16;;;;;;;4.25;2.20;;;;;;;-148.56;100.00;61375.16;4916154;28;20061;-27
2022/08/05 03:56:44;;;;;;;4.45;2.13;;;;;;;-148.56;100.00;61375.16;4914729;28;20054;-28
2022/08/05 03:59:42;;;;;;;11.55;2.33;;;;;;;-148.56;100.00;61375.16;4912799;28;20203;-27
2022/08/05 04:02:09;;;;;;;3.83;2.17;;;;;;;-148.56;100.00;61375.16;4915606;28;20029;-28
2022/08/05 04:04:34;;;;;;;10.35;2.53;;;;;;;-148.56;100.00;61375.16;4914055;28;20079;-28
2022/08/05 04:06:59;;;;;;;6.03;2.90;;;;;;;-148.56;100.00;61375.16;4891963;28;20043;-27
2022/08/05 04:09:25;;;;;;;8.65;2.42;;;;;;;-148.56;100.00;61375.16;4895582;28;20050;-31
2022/08/05 04:11:50;;;;;;;6.55;2.67;;;;;;;-148.56;100.00;61375.16;4911637;28;20089;-27
2022/08/05 04:14:16;;;;;;;11.05;2.58;;;;;;;-148.56;100.00;61375.16;4913713;28;20046;-25
2022/08/05 04:16:42;;;;;;;8.43;2.97;;;;;;;-148.56;100.00;61375.16;4912377;28;20656;-32
2022/08/05 04:19:10;;;;;;;5.72;2.47;;;;;;;-148.56;100.00;61375.16;4913163;28;20049;-27
2022/08/05 04:21:35;;;;;;;5.57;2.42;;;;;;;-148.56;100.00;61375.16;4911881;28;20497;-30
2022/08/05 04:24:03;;;;;;;7.65;2.65;;;;;;;-148.56;100.00;61375.16;4908059;28;20388;-27
2022/08/05 04:26:28;;;;;;;6.22;2.58;;;;;;;-148.56;100.00;61375.16;4914597;28;20030;-27
2022/08/05 04:28:54;;;;;;;5.20;2.60;;;;;;;-148.56;100.00;61375.16;4913721;28;20035;-27
2022/08/05 04:31:19;;;;;;;3.80;2.13;;;;;;;-148.56;100.00;61375.16;4916264;28;20045;-28
2022/08/05 04:33:44;;;;;;;5.18;2.60;;;;;;;-148.56;100.00;61375.16;4911202;28;20034;-32
2022/08/05 04:36:11;;;;;;;6.22;2.63;;;;;;;-148.56;100.00;61375.16;4909208;28;20518;-30
2022/08/05 04:38:36;;;;;;;5.20;2.70;;;;;;;-148.56;100.00;61375.16;4910254;28;21128;-26
2022/08/05 04:41:02;;;;;;;5.53;2.42;;;;;;;-148.56;100.00;61375.16;4912881;28;20422;-28
2022/08/05 04:43:27;;;;;;;9.77;2.92;;;;;;;-148.56;100.00;61375.16;4908792;28;20035;-26
2022/08/05 04:45:53;;;;;;;5.18;2.65;;;;;;;-148.56;100.00;61375.16;4911506;28;20039;-27
2022/08/05 04:48:18;;;;;;;7.00;2.60;;;;;;;-148.56;100.00;61375.16;4911154;28;20208;-25
2022/08/05 04:50:44;;;;;;;5.85;2.60;;;;;;;-148.56;100.00;61375.16;4914884;28;20035;-24
2022/08/05 04:53:10;;;;;;;9.05;2.60;;;;;;;-148.56;100.00;61375.16;4905533;28;20113;-29
2022/08/05 04:55:36;;;;;;;5.93;2.53;;;;;;;-148.56;100.00;61375.16;4914486;28;20034;-26
2022/08/05 04:58:04;;;;;;;7.18;2.60;;;;;;;-148.56;100.00;61375.16;4907409;28;20034;-30
2022/08/05 05:00:30;;;;;;;11.60;2.88;;;;;;;-148.56;100.00;61375.16;4906760;28;20028;-27
2022/08/05 05:02:55;;;;;;;6.55;2.70;;;;;;;-148.56;100.00;61375.16;4921622;28;20101;-31
2022/08/05 05:05:20;;;;;;;8.35;2.80;;;;;;;-148.56;100.00;61375.16;4912678;28;20835;-25
2022/08/05 05:07:46;;;;;;;7.50;3.00;;;;;;;-148.56;100.00;61375.16;4914604;28;20043;-29
2022/08/05 05:10:11;;;;;;;6.50;2.90;;;;;;;-148.56;100.00;61375.16;4908739;28;20144;-26
2022/08/05 05:12:36;;;;;;;4.72;2.60;;;;;;;-148.56;100.00;61375.16;4910713;28;20153;-28
2022/08/05 05:15:03;;;;;;;6.35;2.65;;;;;;;-148.56;100.00;61375.16;4906940;28;20513;-26
2022/08/05 05:17:35;;;;;;;5.28;2.60;;;;;;;-148.56;100.00;61375.16;4911475;28;20047;-26
2022/08/05 05:20:01;;;;;;;4.30;2.80;;;;;;;-148.56;100.00;61375.16;4914116;28;20103;-25
2022/08/05 05:22:26;;;;;;;7.03;3.00;;;;;;;-148.56;100.00;61375.16;4913793;28;21076;-28
2022/08/05 05:24:53;;;;;;;8.68;3.10;;;;;;;-148.56;100.00;61375.16;4914434;28;20031;-30
2022/08/05 05:27:18;;;;;;;6.22;2.78;;;;;;;-148.56;100.00;61375.16;4925149;28;20648;-26
2022/08/05 05:29:44;;;;;;;6.18;2.90;;;;;;;-148.56;100.00;61375.16;4907832;28;20031;-30
2022/08/05 05:32:09;;;;;;;7.63;2.88;;;;;;;-148.56;100.00;61375.16;4910556;28;20034;-28
2022/08/05 05:34:34;;;;;;;6.55;2.60;;;;;;;-148.56;100.00;61375.16;4907463;28;20034;-27
2022/08/05 05:37:00;;;;;;;8.23;2.60;;;;;;;-148.56;100.00;61375.16;4912071;28;20023;-29
2022/08/05 05:39:25;;;;;;;14.02;3.10;;;;;;;-148.56;100.00;61375.16;4901763;28;21037;-26
2022/08/05 05:41:51;;;;;;;3.90;2.78;;;;;;;-148.56;100.00;61375.16;4909158;28;20026;-30
2022/08/05 05:44:16;;;;;;;11.93;3.15;;;;;;;-148.56;100.00;61375.16;4910650;28;20050;-27
2022/08/05 05:46:42;;;;;;;9.63;2.80;;;;;;;-148.56;100.00;61375.16;4909774;28;22650;-27
2022/08/05 05:49:07;;;;;;;6.32;2.80;;;;;;;-148.56;100.00;61375.16;4902432;28;20027;-30
2022/08/05 05:51:32;;;;;;;9.05;2.85;;;;;;;-148.56;100.00;61375.16;4907372;28;20846;-30
2022/08/05 05:53:58;;;;;;;11.40;3.40;;;;;;;-148.56;100.00;61375.16;4910570;28;20039;-28
2022/08/05 05:56:24;;;;;;;14.95;3.95;;;;;;;-148.56;100.00;61375.16;4909291;28;20287;-24
2022/08/05 05:58:49;;;;;;;22.75;3.72;;;;;;;-148.56;100.00;61375.16;4899322;28;20034;-26
2022/08/05 06:01:14;;;;;;;25.02;4.18;;;;;;;-148.56;100.00;61375.16;4912929;28;20039;-28
2022/08/05 06:03:40;;;;;;;38.88;4.85;;;;;;;-148.56;100.00;61375.16;4913492;28;21043;-30
2022/08/05 06:06:06;;;;;;;29.13;4.80;;;;;;;-148.56;100.00;61375.16;4913454;28;20128;-27
2022/08/05 06:08:32;;;;;;;32.15;4.68;;;;;;;-148.56;100.00;61375.16;4916090;28;20101;-30
2022/08/05 06:10:57;;;;;;;24.33;4.03;;;;;;;-148.56;100.00;61375.16;4911022;28;20587;-34
2022/08/05 06:13:22;;;;;;;26.92;4.43;;;;;;;-148.56;100.00;61375.16;4918901;28;20050;-32
2022/08/05 06:15:48;;;;;;;23.40;4.53;;;;;;;-148.56;100.00;61375.16;4907879;28;20576;-30
2022/08/05 06:18:13;;;;;;;17.23;4.40;;;;;;;-148.56;100.00;61375.16;4904878;28;20023;-34
2022/08/05 06:20:38;;;;;;;28.48;4.25;;;;;;;-148.56;100.00;61375.16;4919528;28;20035;-27
2022/08/05 06:23:04;;;;;;;18.08;4.18;;;;;;;-148.56;100.00;61375.16;4914605;28;20062;-30
2022/08/05 06:25:29;;;;;;;16.33;3.80;;;;;;;-148.56;100.00;61375.16;4913130;28;20051;-30
2022/08/05 06:27:54;;;;;;;21.88;3.88;;;;;;;-148.56;100.00;61375.16;4913370;28;20562;-28
2022/08/05 06:30:20;;;;;;;15.13;4.00;;;;;;;-148.56;100.00;61375.16;4909913;28;20105;-30
2022/08/05 06:32:45;;;;;;;13.85;4.20;;;;;;;-148.56;100.00;61375.16;4913678;28;20115;-33
2022/08/05 06:35:11;;;;;;;14.18;3.72;;;;;;;-148.56;100.00;61375.16;4908170;28;20669;-27
2022/08/05 06:37:37;;;;;;;18.00;3.83;;;;;;;-148.56;100.00;61375.16;4913461;28;20055;-28
2022/08/05 06:40:03;;;;;;;13.38;3.70;;;;;;;-148.56;100.00;61375.16;4905014;28;20741;-28
2022/08/05 06:42:28;;;;;;;12.18;3.60;;;;;;;-148.56;100.00;61375.16;4914394;28;22577;-27
2022/08/05 06:44:53;;;;;;;17.92;3.67;;;;;;;-148.56;100.00;61375.16;4916166;28;20031;-28
2022/08/05 06:47:19;;;;;;;15.60;4.45;;;;;;;-148.56;100.00;61375.16;4910107;28;20054;-30
2022/08/05 06:49:44;;;;;;;14.60;3.25;;;;;;;-148.56;100.00;61375.16;4910986;28;20027;-27
2022/08/05 06:52:10;;;;;;;24.38;3.80;;;;;;;-148.56;100.00;61375.16;4907742;28;20629;-32
2022/08/05 06:54:35;;;;;;;17.02;3.25;;;;;;;-148.56;100.00;61375.16;4914395;28;20031;-30
2022/08/05 06:57:01;;;;;;;15.77;3.35;;;;;;;-148.56;100.00;61375.16;4916300;28;20129;-30
2022/08/05 06:59:26;;;;;;;13.82;2.85;;;;;;;-148.56;100.00;61375.16;4917403;28;20038;-33
2022/08/05 07:01:52;;;;;;;11.55;2.50;;;;;;;-148.56;100.00;61375.16;4916300;28;20027;-26
2022/08/05 07:04:17;;;;;;;14.57;2.92;;;;;;;-148.56;100.00;61375.16;4907520;28;20130;-30
2022/08/05 07:06:42;;;;;;;12.63;2.67;;;;;;;-148.56;100.00;61375.16;4913068;28;20106;-31
2022/08/05 07:09:08;;;;;;;7.47;2.70;;;;;;;-148.56;100.00;61375.16;4908778;28;20038;-30
2022/08/05 07:11:33;;;;;;;7.25;2.47;;;;;;;-148.56;100.00;61375.16;4920047;28;20046;-31
2022/08/05 07:16:49;;;;;;;9.38;2.53;;;;;;;-148.56;100.00;61375.16;4914958;28;20119;-29
2022/08/05 07:19:19;;;;;;;5.10;1.90;;;;;;;-148.56;100.00;61375.16;4922396;28;21016;-27
2022/08/05 07:21:48;;;;;;;4.22;1.83;;;;;;;-148.56;100.00;61375.16;4919470;28;20117;-29
2022/08/05 07:24:14;;;;;;;11.50;2.10;;;;;;;-148.56;100.00;61375.16;4915827;28;20031;-32
2022/08/05 07:26:39;;;;;;;24.38;2.70;;;;;;;-148.56;100.00;61375.16;4918254;28;20042;-27
2022/08/05 07:29:05;;;;;;;19.05;2.60;;;;;;;-148.56;100.00;61375.16;4917919;28;20027;-27
2022/08/05 07:31:31;;;;;;;16.98;2.55;;;;;;;-148.56;100.00;61375.16;4918741;28;20355;-28
2022/08/05 07:33:56;;;;;;;20.00;2.53;;;;;;;-148.56;100.00;61375.16;4920390;28;20034;-33
2022/08/05 07:36:21;;;;;;;18.77;2.25;;;;;;;-148.56;100.00;61375.16;4913443;28;20023;-28
2022/08/05 07:38:47;;;;;;;15.57;2.45;;;;;;;-148.56;100.00;61375.16;4918510;28;20047;-32
2022/08/05 07:41:17;;;;;;;14.98;2.20;;;;;;;-148.56;100.00;61375.16;4916759;28;20141;-26
2022/08/05 07:43:42;;;;;;;7.63;2.15;;;;;;;-148.56;100.00;61375.16;4913760;28;20053;-27
2022/08/05 07:46:08;;;;;;;3.50;1.63;;;;;;;-148.56;100.00;61375.16;4925841;28;20027;-28
2022/08/05 07:48:33;;;;;;;3.00;1.67;;;;;;;-148.56;100.00;61375.16;4924435;28;20037;-29
2022/08/05 07:50:59;;;;;;;5.03;1.80;;;;;;;-148.56;100.00;61375.16;4928172;28;20074;-30
2022/08/05 07:53:24;;;;;;;7.25;2.08;;;;;;;-148.56;100.00;61375.16;4924969;28;20073;-31
2022/08/05 07:55:50;;;;;;;4.13;1.83;;;;;;;-148.56;100.00;61375.16;4921756;28;20031;-26
2022/08/05 07:58:15;;;;;;;8.98;3.90;;;;;;;-148.56;100.00;61375.16;4913181;28;20031;-31
2022/08/05 08:00:41;;;;;;;8.98;2.92;;;;;;;-148.56;100.00;61375.16;4912820;28;20118;-26
2022/08/05 08:03:10;;;;;;;14.20;3.42;;;;;;;-148.56;100.00;61375.16;4917063;28;20057;-30
2022/08/05 08:05:37;;;;;;;23.27;3.20;;;;;;;-148.56;100.00;61375.16;4917305;28;20035;-28
2022/08/05 08:08:02;;;;;;;16.50;2.90;;;;;;;-148.56;100.00;61375.16;4917910;28;20037;-33
2022/08/05 08:10:28;;;;;;;13.88;2.90;;;;;;;-148.56;100.00;61375.16;4911222;28;20058;-25
2022/08/05 08:12:53;;;;;;;12.75;2.88;;;;;;;-148.56;100.00;61375.16;4916430;28;20597;-33
2022/08/05 08:15:19;;;;;;;14.88;2.83;;;;;;;-148.56;100.00;61375.16;4914440;28;20026;-31
2022/08/05 08:17:44;;;;;;;12.77;3.13;;;;;;;-148.56;100.00;61375.16;4909146;28;20157;-27
2022/08/05 08:20:09;;;;;;;13.45;3.45;;;;;;;-148.56;100.00;61375.16;4924599;28;20506;-28
2022/08/05 08:22:35;;;;;;;12.27;3.22;;;;;;;-148.56;100.00;61375.16;4926185;28;20027;-33
2022/08/05 08:25:00;;;;;;;15.25;3.33;;;;;;;-148.56;100.00;61375.16;4924903;28;20042;-34
2022/08/05 08:27:26;;;;;;;9.15;3.33;;;;;;;-148.56;100.00;61375.16;4925133;28;20042;-30
2022/08/05 08:29:51;;;;;;;14.55;3.60;;;;;;;-148.56;100.00;61375.16;4925500;28;20078;-33
2022/08/05 08:32:16;;;;;;;16.02;3.53;;;;;;;-148.56;100.00;61375.16;4920847;28;20027;-30
2022/08/05 08:34:42;;;;;;;11.63;2.85;;;;;;;-148.56;100.00;61375.16;4920433;28;20090;-27
2022/08/05 08:37:07;;;;;;;13.40;3.13;;;;;;;-148.56;100.00;61375.16;4927837;28;20088;-28
2022/08/05 08:39:33;;;;;;;8.07;3.45;;;;;;;-148.56;100.00;61375.16;4921815;28;20086;-29
2022/08/05 08:41:59;;;;;;;8.50;3.25;;;;;;;-148.56;100.00;61375.16;4918955;28;20683;-28
2022/08/05 08:44:26;;;;;;;10.52;3.40;;;;;;;-148.56;100.00;61375.16;4929724;28;20315;-31
2022/08/05 08:46:51;;;;;;;10.35;3.10;;;;;;;-148.56;100.00;61375.16;4925460;28;20038;-29
2022/08/05 08:49:18;;;;;;;9.70;3.55;;;;;;;-148.56;100.00;61375.16;4927993;28;20034;-31
2022/08/05 08:51:47;;;;;;;8.68;3.85;;;;;;;-148.56;100.00;61375.16;4930406;28;20555;-31
2022/08/05 08:54:13;;;;;;;9.00;3.38;;;;;;;-148.56;100.00;61375.16;4927470;28;20039;-35
2022/08/05 08:56:39;;;;;;;15.25;3.88;;;;;;;-148.56;100.00;61375.16;4930711;28;20392;-31
2022/08/05 08:59:04;;;;;;;10.20;3.60;;;;;;;-148.56;100.00;61375.16;4930781;28;20123;-27
2022/08/05 09:01:29;;;;;;;14.07;3.85;;;;;;;-148.56;100.00;61375.16;4926800;28;21100;-27
2022/08/05 09:03:55;;;;;;;6.82;3.20;;;;;;;-148.56;100.00;61375.16;4923043;28;20039;-30
2022/08/05 09:06:21;;;;;;;9.10;3.50;;;;;;;-148.56;100.00;61375.16;4922307;28;21911;-34
2022/08/05 09:08:46;;;;;;;10.30;3.75;;;;;;;-148.56;100.00;61375.16;4926348;28;20113;-29
2022/08/05 09:11:12;;;;;;;8.10;3.63;;;;;;;-148.56;100.00;61375.16;4924137;28;20041;-30
2022/08/05 09:13:37;;;;;;;7.75;3.53;;;;;;;-148.56;100.00;61375.16;4926269;28;20026;-27
2022/08/05 09:16:03;;;;;;;11.20;3.53;;;;;;;-148.56;100.00;61375.16;4927768;28;20391;-32
2022/08/05 09:18:28;;;;;;;9.13;3.30;;;;;;;-148.56;100.00;61375.16;4927464;28;20762;-27
2022/08/05 09:20:53;;;;;;;9.32;3.10;;;;;;;-148.56;100.00;61375.16;4929530;28;20531;-27
2022/08/05 09:23:19;;;;;;;6.40;3.45;;;;;;;-148.56;100.00;61375.16;4927615;28;20039;-27
2022/08/05 09:25:46;;;;;;;9.23;3.05;;;;;;;-148.56;100.00;61375.16;4929999;28;20035;-27
2022/08/05 09:28:22;;;;;;;7.40;3.25;;;;;;;-148.56;100.00;61375.16;4926232;28;20035;-28
2022/08/05 09:30:57;;;;;;;7.53;3.38;;;;;;;-148.56;100.00;61375.16;4929257;28;20081;-30
2022/08/05 09:33:23;;;;;;;7.15;3.13;;;;;;;-148.56;100.00;61375.16;4928751;28;20039;-29
2022/08/05 09:36:06;;;;;;;8.23;3.40;;;;;;;-148.56;100.00;61375.16;4925937;28;20047;-28
2022/08/05 09:38:32;;;;;;;7.25;2.95;;;;;;;-148.56;100.00;61375.16;4925416;28;20030;-30
2022/08/05 09:41:04;;;;;;;5.45;3.00;;;;;;;-148.56;100.00;61375.16;4924567;28;20054;-28
2022/08/05 09:43:34;;;;;;;5.68;2.80;;;;;;;-148.56;100.00;61375.16;4925302;28;20053;-30
2022/08/05 09:46:04;;;;;;;6.07;3.05;;;;;;;-148.56;100.00;61375.16;4931244;28;20023;-32
2022/08/05 09:48:30;;;;;;;7.45;3.28;;;;;;;-148.56;100.00;61375.16;4929708;28;20041;-27
2022/08/05 09:51:10;;;;;;;7.15;3.00;;;;;;;-148.56;100.00;61375.16;4931435;28;20074;-28
2022/08/05 09:53:49;;;;;;;6.50;3.25;;;;;;;-148.56;100.00;61375.16;4929608;28;20065;-30
2022/08/05 09:56:32;;;;;;;7.30;3.05;;;;;;;-148.56;100.00;61375.16;4926738;28;20015;-29
2022/08/05 09:58:59;;;;;;;6.15;3.03;;;;;;;-148.56;100.00;61375.16;4923229;28;21247;-30
2022/08/05 10:01:24;;;;;;;6.03;2.72;;;;;;;-148.56;100.00;61375.16;4927893;28;20081;-29
2022/08/05 10:03:58;;;;;;;6.55;3.08;;;;;;;-148.56;100.00;61375.16;4924542;28;21241;-27
2022/08/05 10:06:24;;;;;;;7.18;2.95;;;;;;;-148.56;100.00;61375.16;4926444;28;20817;-27
2022/08/05 10:08:49;;;;;;;6.65;2.85;;;;;;;-148.56;100.00;61375.16;4928510;28;20031;-27
2022/08/05 10:11:15;;;;;;;7.43;2.72;;;;;;;-148.56;100.00;61375.16;4925389;28;20034;-29
2022/08/05 10:13:40;;;;;;;5.45;2.75;;;;;;;-148.56;100.00;61375.16;4926988;28;20121;-29
2022/08/05 10:16:06;;;;;;;4.43;2.70;;;;;;;-148.56;100.00;61375.16;4921280;28;20027;-28
2022/08/05 10:18:32;;;;;;;5.50;2.65;;;;;;;-148.56;100.00;61375.16;4927796;28;20034;-27
2022/08/05 10:21:04;;;;;;;5.50;2.58;;;;;;;-148.56;100.00;61375.16;4931163;28;20593;-30
2022/08/05 10:23:31;;;;;;;5.32;2.72;;;;;;;-148.56;100.00;61375.16;4926702;28;20225;-31
2022/08/05 10:25:58;;;;;;;3.90;2.30;;;;;;;-148.56;100.00;61375.16;4930179;28;20043;-28
2022/08/05 10:28:23;;;;;;;3.88;2.38;;;;;;;-148.56;100.00;61375.16;4927065;28;21126;-27
2022/08/05 10:30:50;;;;;;;4.53;2.28;;;;;;;-148.56;100.00;61375.16;4926226;28;20042;-30
2022/08/05 10:33:16;;;;;;;6.30;2.63;;;;;;;-148.56;100.00;61375.16;4929179;28;20026;-25
2022/08/05 10:35:41;;;;;;;4.70;2.53;;;;;;;-148.56;100.00;61375.16;4925049;28;20065;-26
2022/08/05 10:38:06;;;;;;;4.80;2.40;;;;;;;-148.56;100.00;61375.16;4924519;28;20039;-32
2022/08/05 10:40:34;;;;;;;4.80;2.58;;;;;;;-148.56;100.00;61375.16;4928701;28;20263;-31
2022/08/05 10:43:23;;;;;;;4.28;2.42;;;;;;;-148.56;100.00;61375.16;4927311;28;20101;-28
2022/08/05 10:45:59;;;;;;;3.85;2.10;;;;;;;-148.56;100.00;61375.16;4930591;28;20039;-31
2022/08/05 10:48:56;;;;;;;5.20;2.20;;;;;;;-148.56;100.00;61375.16;4931016;28;20041;-32
2022/08/05 10:51:22;;;;;;;5.97;2.40;;;;;;;-148.56;100.00;61375.16;4924769;28;20602;-27
2022/08/05 10:53:50;;;;;;;4.20;2.50;;;;;;;-148.56;100.00;61375.16;4930905;28;20035;-29
2022/08/05 10:56:26;;;;;;;5.15;2.45;;;;;;;-148.56;100.00;61375.16;4932417;28;20047;-30
2022/08/05 10:58:54;;;;;;;4.57;2.60;;;;;;;-148.56;100.00;61375.16;4932312;28;20169;-32
2022/08/05 11:01:35;;;;;;;5.18;2.40;;;;;;;-148.56;100.00;61375.16;4925346;28;20026;-33
2022/08/05 11:04:08;;;;;;;4.47;2.33;;;;;;;-148.56;100.00;61375.16;4928251;28;20054;-29
2022/08/05 11:06:34;;;;;;;5.22;2.50;;;;;;;-148.56;100.00;61375.16;4931622;28;20023;-30
2022/08/05 11:09:19;;;;;;;4.18;2.40;;;;;;;-148.56;100.00;61375.16;4929629;28;20034;-30
2022/08/05 11:11:46;;;;;;;3.88;2.10;;;;;;;-148.56;100.00;61375.16;4932752;28;20777;-28